sensor_id;sensor_type;location;lat;lon;timestamp;P1;durP1;ratioP1;P2;durP2;ratioP2
29568;SDS011;16501;51.462;14.346;2023-07-24T00:01:36;5.15;;;4.25;;
29568;SDS011;16501;51.462;14.346;2023-07-24T00:04:02;5.50;;;4.00;;
29568;SDS011;16501;51.462;14.346;2023-07-24T00:06:27;10.43;;;4.57;;
29568;SDS011;16501;51.462;14.346;2023-07-24T00:08:52;6.07;;;5.40;;
29568;SDS011;16501;51.462;14.346;2023-07-24T00:11:17;4.38;;;3.97;;
29568;SDS011;16501;51.462;14.346;2023-07-24T00:13:42;5.50;;;4.35;;
29568;SDS011;16501;51.462;14.346;2023-07-24T00:16:09;5.65;;;4.70;;
29568;SDS011;16501;51.462;14.346;2023-07-24T00:18:35;6.25;;;5.05;;
29568;SDS011;16501;51.462;14.346;2023-07-24T00:21:00;6.13;;;5.18;;
29568;SDS011;16501;51.462;14.346;2023-07-24T00:23:25;5.22;;;4.72;;
29568;SDS011;16501;51.462;14.346;2023-07-24T00:25:51;5.35;;;4.28;;
29568;SDS011;16501;51.462;14.346;2023-07-24T00:28:16;6.85;;;5.55;;
29568;SDS011;16501;51.462;14.346;2023-07-24T00:30:42;5.32;;;4.82;;
29568;SDS011;16501;51.462;14.346;2023-07-24T00:33:07;6.85;;;4.93;;
29568;SDS011;16501;51.462;14.346;2023-07-24T00:35:32;5.25;;;4.85;;
29568;SDS011;16501;51.462;14.346;2023-07-24T00:37:58;5.75;;;5.25;;
29568;SDS011;16501;51.462;14.346;2023-07-24T00:40:23;9.35;;;5.05;;
29568;SDS011;16501;51.462;14.346;2023-07-24T00:42:48;7.95;;;4.90;;
29568;SDS011;16501;51.462;14.346;2023-07-24T00:45:14;11.77;;;5.30;;
29568;SDS011;16501;51.462;14.346;2023-07-24T00:47:40;5.85;;;5.22;;
29568;SDS011;16501;51.462;14.346;2023-07-24T00:50:06;5.90;;;5.30;;
29568;SDS011;16501;51.462;14.346;2023-07-24T00:52:32;8.32;;;5.45;;
29568;SDS011;16501;51.462;14.346;2023-07-24T00:54:57;6.35;;;5.25;;
29568;SDS011;16501;51.462;14.346;2023-07-24T00:57:23;13.38;;;5.13;;
29568;SDS011;16501;51.462;14.346;2023-07-24T00:59:48;6.28;;;5.15;;
29568;SDS011;16501;51.462;14.346;2023-07-24T01:02:13;5.30;;;4.80;;
29568;SDS011;16501;51.462;14.346;2023-07-24T01:04:39;5.47;;;4.97;;
29568;SDS011;16501;51.462;14.346;2023-07-24T01:07:04;7.47;;;5.20;;
29568;SDS011;16501;51.462;14.346;2023-07-24T01:09:30;6.28;;;5.10;;
29568;SDS011;16501;51.462;14.346;2023-07-24T01:12:03;5.93;;;5.32;;
29568;SDS011;16501;51.462;14.346;2023-07-24T01:14:36;6.20;;;5.00;;
29568;SDS011;16501;51.462;14.346;2023-07-24T01:17:10;9.75;;;5.28;;
29568;SDS011;16501;51.462;14.346;2023-07-24T01:19:43;6.70;;;4.93;;
29568;SDS011;16501;51.462;14.346;2023-07-24T01:22:25;6.93;;;5.45;;
29568;SDS011;16501;51.462;14.346;2023-07-24T01:25:00;8.00;;;4.80;;
29568;SDS011;16501;51.462;14.346;2023-07-24T01:27:35;6.32;;;5.50;;
29568;SDS011;16501;51.462;14.346;2023-07-24T01:30:01;6.63;;;4.80;;
29568;SDS011;16501;51.462;14.346;2023-07-24T01:32:26;8.95;;;5.07;;
29568;SDS011;16501;51.462;14.346;2023-07-24T01:34:52;4.80;;;4.32;;
29568;SDS011;16501;51.462;14.346;2023-07-24T01:37:17;7.03;;;4.90;;
29568;SDS011;16501;51.462;14.346;2023-07-24T01:39:45;6.35;;;4.80;;
29568;SDS011;16501;51.462;14.346;2023-07-24T01:42:11;6.97;;;4.68;;
29568;SDS011;16501;51.462;14.346;2023-07-24T01:44:37;4.88;;;4.32;;
29568;SDS011;16501;51.462;14.346;2023-07-24T01:47:02;5.80;;;4.65;;
29568;SDS011;16501;51.462;14.346;2023-07-24T01:49:28;10.05;;;5.10;;
29568;SDS011;16501;51.462;14.346;2023-07-24T01:51:53;7.93;;;4.82;;
29568;SDS011;16501;51.462;14.346;2023-07-24T01:54:18;4.78;;;4.38;;
29568;SDS011;16501;51.462;14.346;2023-07-24T01:56:43;8.07;;;4.40;;
29568;SDS011;16501;51.462;14.346;2023-07-24T01:59:09;8.35;;;4.18;;
29568;SDS011;16501;51.462;14.346;2023-07-24T02:01:36;4.57;;;3.92;;
29568;SDS011;16501;51.462;14.346;2023-07-24T02:04:02;6.07;;;4.55;;
29568;SDS011;16501;51.462;14.346;2023-07-24T02:06:27;5.05;;;4.60;;
29568;SDS011;16501;51.462;14.346;2023-07-24T02:08:52;4.65;;;4.13;;
29568;SDS011;16501;51.462;14.346;2023-07-24T02:11:17;4.93;;;4.45;;
29568;SDS011;16501;51.462;14.346;2023-07-24T02:13:43;6.75;;;5.20;;
29568;SDS011;16501;51.462;14.346;2023-07-24T02:16:09;5.13;;;4.15;;
29568;SDS011;16501;51.462;14.346;2023-07-24T02:18:38;7.15;;;4.82;;
29568;SDS011;16501;51.462;14.346;2023-07-24T02:21:03;7.13;;;4.90;;
29568;SDS011;16501;51.462;14.346;2023-07-24T02:23:28;6.45;;;4.30;;
29568;SDS011;16501;51.462;14.346;2023-07-24T02:25:54;8.00;;;4.53;;
29568;SDS011;16501;51.462;14.346;2023-07-24T02:28:19;5.07;;;4.25;;
29568;SDS011;16501;51.462;14.346;2023-07-24T02:30:46;6.05;;;4.65;;
29568;SDS011;16501;51.462;14.346;2023-07-24T02:33:12;5.50;;;3.92;;
29568;SDS011;16501;51.462;14.346;2023-07-24T02:35:38;7.07;;;4.13;;
29568;SDS011;16501;51.462;14.346;2023-07-24T02:38:04;4.25;;;3.83;;
29568;SDS011;16501;51.462;14.346;2023-07-24T02:40:30;8.77;;;4.60;;
29568;SDS011;16501;51.462;14.346;2023-07-24T02:42:55;5.03;;;4.35;;
29568;SDS011;16501;51.462;14.346;2023-07-24T02:45:20;5.90;;;4.30;;
29568;SDS011;16501;51.462;14.346;2023-07-24T02:47:45;5.03;;;3.78;;
29568;SDS011;16501;51.462;14.346;2023-07-24T02:50:11;5.43;;;4.18;;
29568;SDS011;16501;51.462;14.346;2023-07-24T02:52:36;4.55;;;4.15;;
29568;SDS011;16501;51.462;14.346;2023-07-24T02:55:01;4.90;;;4.20;;
29568;SDS011;16501;51.462;14.346;2023-07-24T02:57:26;5.07;;;4.18;;
29568;SDS011;16501;51.462;14.346;2023-07-24T02:59:52;5.57;;;4.25;;
29568;SDS011;16501;51.462;14.346;2023-07-24T03:02:17;7.88;;;4.00;;
29568;SDS011;16501;51.462;14.346;2023-07-24T03:04:42;5.45;;;4.15;;
29568;SDS011;16501;51.462;14.346;2023-07-24T03:07:07;5.47;;;4.57;;
29568;SDS011;16501;51.462;14.346;2023-07-24T03:09:33;4.57;;;3.95;;
29568;SDS011;16501;51.462;14.346;2023-07-24T03:11:58;4.70;;;3.70;;
29568;SDS011;16501;51.462;14.346;2023-07-24T03:14:23;7.93;;;3.80;;
29568;SDS011;16501;51.462;14.346;2023-07-24T03:16:48;5.15;;;4.03;;
29568;SDS011;16501;51.462;14.346;2023-07-24T03:19:14;6.22;;;4.43;;
29568;SDS011;16501;51.462;14.346;2023-07-24T03:21:39;4.57;;;4.15;;
29568;SDS011;16501;51.462;14.346;2023-07-24T03:24:04;4.53;;;4.07;;
29568;SDS011;16501;51.462;14.346;2023-07-24T03:26:30;6.18;;;4.60;;
29568;SDS011;16501;51.462;14.346;2023-07-24T03:28:55;6.35;;;3.88;;
29568;SDS011;16501;51.462;14.346;2023-07-24T03:31:20;5.68;;;4.25;;
29568;SDS011;16501;51.462;14.346;2023-07-24T03:33:45;5.40;;;4.20;;
29568;SDS011;16501;51.462;14.346;2023-07-24T03:36:11;6.43;;;4.75;;
29568;SDS011;16501;51.462;14.346;2023-07-24T03:38:36;5.97;;;4.60;;
29568;SDS011;16501;51.462;14.346;2023-07-24T03:41:01;4.75;;;4.15;;
29568;SDS011;16501;51.462;14.346;2023-07-24T03:43:26;8.27;;;4.50;;
29568;SDS011;16501;51.462;14.346;2023-07-24T03:45:51;4.65;;;4.03;;
29568;SDS011;16501;51.462;14.346;2023-07-24T03:48:17;7.13;;;4.28;;
29568;SDS011;16501;51.462;14.346;2023-07-24T03:50:42;5.45;;;4.15;;
29568;SDS011;16501;51.462;14.346;2023-07-24T03:53:07;7.15;;;4.10;;
29568;SDS011;16501;51.462;14.346;2023-07-24T03:55:32;6.47;;;3.92;;
29568;SDS011;16501;51.462;14.346;2023-07-24T03:57:58;9.30;;;4.22;;
29568;SDS011;16501;51.462;14.346;2023-07-24T04:00:23;6.03;;;4.45;;
29568;SDS011;16501;51.462;14.346;2023-07-24T04:02:48;7.22;;;4.22;;
29568;SDS011;16501;51.462;14.346;2023-07-24T04:05:14;8.60;;;4.25;;
29568;SDS011;16501;51.462;14.346;2023-07-24T04:07:39;4.85;;;3.92;;
29568;SDS011;16501;51.462;14.346;2023-07-24T04:10:04;7.22;;;4.32;;
29568;SDS011;16501;51.462;14.346;2023-07-24T04:12:30;4.68;;;3.80;;
29568;SDS011;16501;51.462;14.346;2023-07-24T04:14:55;5.57;;;4.25;;
29568;SDS011;16501;51.462;14.346;2023-07-24T04:17:21;8.57;;;4.63;;
29568;SDS011;16501;51.462;14.346;2023-07-24T04:19:46;11.90;;;4.10;;
29568;SDS011;16501;51.462;14.346;2023-07-24T04:22:11;5.90;;;4.40;;
29568;SDS011;16501;51.462;14.346;2023-07-24T04:24:37;4.47;;;4.03;;
29568;SDS011;16501;51.462;14.346;2023-07-24T04:27:02;5.80;;;4.47;;
29568;SDS011;16501;51.462;14.346;2023-07-24T04:29:27;7.53;;;3.75;;
29568;SDS011;16501;51.462;14.346;2023-07-24T04:31:53;4.10;;;3.70;;
29568;SDS011;16501;51.462;14.346;2023-07-24T04:34:18;7.50;;;4.22;;
29568;SDS011;16501;51.462;14.346;2023-07-24T04:36:44;4.95;;;4.00;;
29568;SDS011;16501;51.462;14.346;2023-07-24T04:39:09;8.25;;;4.30;;
29568;SDS011;16501;51.462;14.346;2023-07-24T04:41:34;6.13;;;3.70;;
29568;SDS011;16501;51.462;14.346;2023-07-24T04:43:59;6.28;;;3.97;;
29568;SDS011;16501;51.462;14.346;2023-07-24T04:46:25;4.95;;;4.10;;
29568;SDS011;16501;51.462;14.346;2023-07-24T04:48:50;5.68;;;3.78;;
29568;SDS011;16501;51.462;14.346;2023-07-24T04:51:15;9.88;;;4.15;;
29568;SDS011;16501;51.462;14.346;2023-07-24T04:53:41;5.28;;;4.15;;
29568;SDS011;16501;51.462;14.346;2023-07-24T04:56:06;9.05;;;4.05;;
29568;SDS011;16501;51.462;14.346;2023-07-24T04:58:32;4.30;;;3.72;;
29568;SDS011;16501;51.462;14.346;2023-07-24T05:00:57;5.25;;;3.92;;
29568;SDS011;16501;51.462;14.346;2023-07-24T05:03:22;4.80;;;4.07;;
29568;SDS011;16501;51.462;14.346;2023-07-24T05:05:48;5.57;;;3.83;;
29568;SDS011;16501;51.462;14.346;2023-07-24T05:08:13;5.28;;;4.22;;
29568;SDS011;16501;51.462;14.346;2023-07-24T05:10:38;7.13;;;3.58;;
29568;SDS011;16501;51.462;14.346;2023-07-24T05:13:04;6.82;;;3.60;;
29568;SDS011;16501;51.462;14.346;2023-07-24T05:15:29;4.82;;;3.90;;
29568;SDS011;16501;51.462;14.346;2023-07-24T05:17:54;5.15;;;3.97;;
29568;SDS011;16501;51.462;14.346;2023-07-24T05:20:20;6.55;;;3.75;;
29568;SDS011;16501;51.462;14.346;2023-07-24T05:22:45;13.90;;;4.32;;
29568;SDS011;16501;51.462;14.346;2023-07-24T05:25:10;6.37;;;4.00;;
29568;SDS011;16501;51.462;14.346;2023-07-24T05:27:36;6.28;;;3.72;;
29568;SDS011;16501;51.462;14.346;2023-07-24T05:30:02;15.02;;;4.05;;
29568;SDS011;16501;51.462;14.346;2023-07-24T05:32:28;5.75;;;3.70;;
29568;SDS011;16501;51.462;14.346;2023-07-24T05:34:53;4.80;;;3.85;;
29568;SDS011;16501;51.462;14.346;2023-07-24T05:37:18;6.05;;;3.92;;
29568;SDS011;16501;51.462;14.346;2023-07-24T05:39:44;4.18;;;3.70;;
29568;SDS011;16501;51.462;14.346;2023-07-24T05:42:09;6.47;;;3.63;;
29568;SDS011;16501;51.462;14.346;2023-07-24T05:44:35;4.72;;;3.40;;
29568;SDS011;16501;51.462;14.346;2023-07-24T05:47:02;4.75;;;3.45;;
29568;SDS011;16501;51.462;14.346;2023-07-24T05:49:27;6.47;;;3.08;;
29568;SDS011;16501;51.462;14.346;2023-07-24T05:51:53;5.10;;;3.83;;
29568;SDS011;16501;51.462;14.346;2023-07-24T05:54:19;5.88;;;4.00;;
29568;SDS011;16501;51.462;14.346;2023-07-24T05:56:44;5.50;;;3.67;;
29568;SDS011;16501;51.462;14.346;2023-07-24T05:59:09;4.60;;;3.50;;
29568;SDS011;16501;51.462;14.346;2023-07-24T06:01:34;4.93;;;3.22;;
29568;SDS011;16501;51.462;14.346;2023-07-24T06:04:00;6.88;;;3.88;;
29568;SDS011;16501;51.462;14.346;2023-07-24T06:06:25;7.82;;;3.60;;
29568;SDS011;16501;51.462;14.346;2023-07-24T06:08:50;6.20;;;4.68;;
29568;SDS011;16501;51.462;14.346;2023-07-24T06:11:16;6.32;;;4.05;;
29568;SDS011;16501;51.462;14.346;2023-07-24T06:13:41;6.97;;;3.60;;
29568;SDS011;16501;51.462;14.346;2023-07-24T06:16:06;7.88;;;3.78;;
29568;SDS011;16501;51.462;14.346;2023-07-24T06:18:32;9.55;;;3.78;;
29568;SDS011;16501;51.462;14.346;2023-07-24T06:20:58;4.65;;;3.33;;
29568;SDS011;16501;51.462;14.346;2023-07-24T06:23:23;6.57;;;3.92;;
29568;SDS011;16501;51.462;14.346;2023-07-24T06:25:48;7.30;;;3.65;;
29568;SDS011;16501;51.462;14.346;2023-07-24T06:28:14;4.93;;;3.80;;
29568;SDS011;16501;51.462;14.346;2023-07-24T06:30:39;8.07;;;3.47;;
29568;SDS011;16501;51.462;14.346;2023-07-24T06:33:04;5.70;;;3.60;;
29568;SDS011;16501;51.462;14.346;2023-07-24T06:35:30;5.40;;;3.50;;
29568;SDS011;16501;51.462;14.346;2023-07-24T06:37:55;8.30;;;3.85;;
29568;SDS011;16501;51.462;14.346;2023-07-24T06:40:20;4.80;;;3.90;;
29568;SDS011;16501;51.462;14.346;2023-07-24T06:42:45;5.78;;;4.07;;
29568;SDS011;16501;51.462;14.346;2023-07-24T06:45:11;7.03;;;3.30;;
29568;SDS011;16501;51.462;14.346;2023-07-24T06:47:36;6.38;;;3.40;;
29568;SDS011;16501;51.462;14.346;2023-07-24T06:50:01;7.45;;;3.67;;
29568;SDS011;16501;51.462;14.346;2023-07-24T06:52:27;6.05;;;3.75;;
29568;SDS011;16501;51.462;14.346;2023-07-24T06:54:55;6.05;;;3.83;;
29568;SDS011;16501;51.462;14.346;2023-07-24T06:57:23;5.85;;;3.70;;
29568;SDS011;16501;51.462;14.346;2023-07-24T06:59:48;5.25;;;3.75;;
29568;SDS011;16501;51.462;14.346;2023-07-24T07:02:13;9.32;;;3.50;;
29568;SDS011;16501;51.462;14.346;2023-07-24T07:04:38;6.20;;;3.90;;
29568;SDS011;16501;51.462;14.346;2023-07-24T07:07:04;10.50;;;4.60;;
29568;SDS011;16501;51.462;14.346;2023-07-24T07:09:29;4.90;;;3.53;;
29568;SDS011;16501;51.462;14.346;2023-07-24T07:11:54;4.57;;;4.03;;
29568;SDS011;16501;51.462;14.346;2023-07-24T07:14:19;7.50;;;4.05;;
29568;SDS011;16501;51.462;14.346;2023-07-24T07:16:44;6.82;;;3.80;;
29568;SDS011;16501;51.462;14.346;2023-07-24T07:19:12;6.18;;;4.30;;
29568;SDS011;16501;51.462;14.346;2023-07-24T07:21:37;7.18;;;4.18;;
29568;SDS011;16501;51.462;14.346;2023-07-24T07:24:03;5.03;;;4.10;;
29568;SDS011;16501;51.462;14.346;2023-07-24T07:26:28;10.80;;;4.18;;
29568;SDS011;16501;51.462;14.346;2023-07-24T07:28:54;6.90;;;3.70;;
29568;SDS011;16501;51.462;14.346;2023-07-24T07:31:20;8.75;;;4.28;;
29568;SDS011;16501;51.462;14.346;2023-07-24T07:33:46;9.23;;;3.65;;
29568;SDS011;16501;51.462;14.346;2023-07-24T07:36:11;7.82;;;4.20;;
29568;SDS011;16501;51.462;14.346;2023-07-24T07:38:37;5.07;;;3.30;;
29568;SDS011;16501;51.462;14.346;2023-07-24T07:41:04;5.97;;;3.33;;
29568;SDS011;16501;51.462;14.346;2023-07-24T07:43:30;4.95;;;3.83;;
29568;SDS011;16501;51.462;14.346;2023-07-24T07:45:55;7.13;;;3.63;;
29568;SDS011;16501;51.462;14.346;2023-07-24T07:48:21;4.93;;;3.65;;
29568;SDS011;16501;51.462;14.346;2023-07-24T07:50:50;4.63;;;3.38;;
29568;SDS011;16501;51.462;14.346;2023-07-24T07:53:17;5.77;;;3.87;;
29568;SDS011;16501;51.462;14.346;2023-07-24T07:55:43;3.95;;;2.97;;
29568;SDS011;16501;51.462;14.346;2023-07-24T07:58:08;5.88;;;4.00;;
29568;SDS011;16501;51.462;14.346;2023-07-24T08:00:34;4.20;;;3.53;;
29568;SDS011;16501;51.462;14.346;2023-07-24T08:02:59;3.85;;;2.92;;
29568;SDS011;16501;51.462;14.346;2023-07-24T08:05:24;5.17;;;3.53;;
29568;SDS011;16501;51.462;14.346;2023-07-24T08:07:50;3.65;;;3.30;;
29568;SDS011;16501;51.462;14.346;2023-07-24T08:10:15;3.53;;;3.22;;
29568;SDS011;16501;51.462;14.346;2023-07-24T08:12:41;8.32;;;3.95;;
29568;SDS011;16501;51.462;14.346;2023-07-24T08:15:07;4.82;;;3.45;;
29568;SDS011;16501;51.462;14.346;2023-07-24T08:17:32;4.57;;;4.10;;
29568;SDS011;16501;51.462;14.346;2023-07-24T08:19:58;6.60;;;3.80;;
29568;SDS011;16501;51.462;14.346;2023-07-24T08:22:23;5.53;;;3.10;;
29568;SDS011;16501;51.462;14.346;2023-07-24T08:24:48;5.47;;;3.33;;
29568;SDS011;16501;51.462;14.346;2023-07-24T08:27:15;5.15;;;3.47;;
29568;SDS011;16501;51.462;14.346;2023-07-24T08:29:40;4.22;;;3.63;;
29568;SDS011;16501;51.462;14.346;2023-07-24T08:32:06;6.53;;;3.55;;
29568;SDS011;16501;51.462;14.346;2023-07-24T08:34:31;6.90;;;3.45;;
29568;SDS011;16501;51.462;14.346;2023-07-24T08:36:56;7.32;;;4.30;;
29568;SDS011;16501;51.462;14.346;2023-07-24T08:39:22;8.47;;;3.93;;
29568;SDS011;16501;51.462;14.346;2023-07-24T08:41:47;4.70;;;3.17;;
29568;SDS011;16501;51.462;14.346;2023-07-24T08:44:12;5.13;;;3.65;;
29568;SDS011;16501;51.462;14.346;2023-07-24T08:46:38;6.18;;;3.35;;
29568;SDS011;16501;51.462;14.346;2023-07-24T08:49:06;9.85;;;3.78;;
29568;SDS011;16501;51.462;14.346;2023-07-24T08:51:36;7.63;;;4.10;;
29568;SDS011;16501;51.462;14.346;2023-07-24T08:54:02;5.35;;;3.75;;
29568;SDS011;16501;51.462;14.346;2023-07-24T08:56:28;7.53;;;4.07;;
29568;SDS011;16501;51.462;14.346;2023-07-24T08:58:54;6.38;;;4.00;;
29568;SDS011;16501;51.462;14.346;2023-07-24T09:01:20;5.72;;;3.88;;
29568;SDS011;16501;51.462;14.346;2023-07-24T09:03:45;5.28;;;3.50;;
29568;SDS011;16501;51.462;14.346;2023-07-24T09:06:10;4.38;;;3.70;;
29568;SDS011;16501;51.462;14.346;2023-07-24T09:08:36;4.73;;;3.70;;
29568;SDS011;16501;51.462;14.346;2023-07-24T09:11:07;7.50;;;3.85;;
29568;SDS011;16501;51.462;14.346;2023-07-24T09:13:35;4.38;;;3.42;;
29568;SDS011;16501;51.462;14.346;2023-07-24T09:16:01;6.30;;;4.32;;
29568;SDS011;16501;51.462;14.346;2023-07-24T09:18:26;6.93;;;3.88;;
29568;SDS011;16501;51.462;14.346;2023-07-24T09:20:51;7.10;;;4.13;;
29568;SDS011;16501;51.462;14.346;2023-07-24T09:23:25;7.07;;;3.65;;
29568;SDS011;16501;51.462;14.346;2023-07-24T09:25:52;7.18;;;3.90;;
29568;SDS011;16501;51.462;14.346;2023-07-24T09:28:18;6.33;;;4.13;;
29568;SDS011;16501;51.462;14.346;2023-07-24T09:30:51;12.63;;;4.05;;
29568;SDS011;16501;51.462;14.346;2023-07-24T09:33:18;8.30;;;4.70;;
29568;SDS011;16501;51.462;14.346;2023-07-24T09:35:43;7.05;;;4.30;;
29568;SDS011;16501;51.462;14.346;2023-07-24T09:38:09;4.37;;;3.70;;
29568;SDS011;16501;51.462;14.346;2023-07-24T09:40:43;6.50;;;4.47;;
29568;SDS011;16501;51.462;14.346;2023-07-24T09:43:22;7.32;;;4.40;;
29568;SDS011;16501;51.462;14.346;2023-07-24T09:45:49;4.90;;;4.10;;
29568;SDS011;16501;51.462;14.346;2023-07-24T09:48:16;6.15;;;4.25;;
29568;SDS011;16501;51.462;14.346;2023-07-24T09:50:43;9.70;;;4.10;;
29568;SDS011;16501;51.462;14.346;2023-07-24T09:53:24;6.05;;;4.15;;
29568;SDS011;16501;51.462;14.346;2023-07-24T09:56:04;5.80;;;4.28;;
29568;SDS011;16501;51.462;14.346;2023-07-24T09:58:32;5.93;;;4.05;;
29568;SDS011;16501;51.462;14.346;2023-07-24T10:00:59;8.48;;;5.00;;
29568;SDS011;16501;51.462;14.346;2023-07-24T10:03:26;10.18;;;4.70;;
29568;SDS011;16501;51.462;14.346;2023-07-24T10:05:52;8.98;;;4.75;;
29568;SDS011;16501;51.462;14.346;2023-07-24T10:08:18;9.80;;;4.85;;
29568;SDS011;16501;51.462;14.346;2023-07-24T10:10:44;7.25;;;4.10;;
29568;SDS011;16501;51.462;14.346;2023-07-24T10:13:10;9.57;;;4.85;;
29568;SDS011;16501;51.462;14.346;2023-07-24T10:15:39;6.97;;;4.32;;
29568;SDS011;16501;51.462;14.346;2023-07-24T10:18:08;7.50;;;5.40;;
29568;SDS011;16501;51.462;14.346;2023-07-24T10:20:38;5.88;;;4.95;;
29568;SDS011;16501;51.462;14.346;2023-07-24T10:23:04;6.33;;;4.57;;
29568;SDS011;16501;51.462;14.346;2023-07-24T10:25:35;12.18;;;5.90;;
29568;SDS011;16501;51.462;14.346;2023-07-24T10:28:03;8.57;;;5.40;;
29568;SDS011;16501;51.462;14.346;2023-07-24T10:30:39;8.85;;;5.03;;
29568;SDS011;16501;51.462;14.346;2023-07-24T10:35:42;6.57;;;5.32;;
29568;SDS011;16501;51.462;14.346;2023-07-24T10:38:09;5.22;;;4.70;;
29568;SDS011;16501;51.462;14.346;2023-07-24T10:40:35;8.68;;;5.15;;
29568;SDS011;16501;51.462;14.346;2023-07-24T10:45:37;7.13;;;5.20;;
29568;SDS011;16501;51.462;14.346;2023-07-24T10:48:03;7.63;;;5.20;;
29568;SDS011;16501;51.462;14.346;2023-07-24T10:50:35;8.38;;;6.25;;
29568;SDS011;16501;51.462;14.346;2023-07-24T10:53:02;7.63;;;5.93;;
29568;SDS011;16501;51.462;14.346;2023-07-24T10:55:27;10.10;;;5.40;;
29568;SDS011;16501;51.462;14.346;2023-07-24T10:57:52;7.80;;;5.77;;
29568;SDS011;16501;51.462;14.346;2023-07-24T11:00:18;7.10;;;5.72;;
29568;SDS011;16501;51.462;14.346;2023-07-24T11:02:43;9.65;;;5.60;;
29568;SDS011;16501;51.462;14.346;2023-07-24T11:05:08;8.95;;;5.35;;
29568;SDS011;16501;51.462;14.346;2023-07-24T11:07:33;8.85;;;5.90;;
29568;SDS011;16501;51.462;14.346;2023-07-24T11:09:59;8.77;;;5.50;;
29568;SDS011;16501;51.462;14.346;2023-07-24T11:12:24;8.90;;;5.80;;
29568;SDS011;16501;51.462;14.346;2023-07-24T11:14:52;6.93;;;5.03;;
29568;SDS011;16501;51.462;14.346;2023-07-24T11:17:20;6.32;;;5.20;;
29568;SDS011;16501;51.462;14.346;2023-07-24T11:19:46;8.20;;;4.95;;
29568;SDS011;16501;51.462;14.346;2023-07-24T11:22:11;11.93;;;5.60;;
29568;SDS011;16501;51.462;14.346;2023-07-24T11:24:46;6.40;;;5.32;;
29568;SDS011;16501;51.462;14.346;2023-07-24T11:27:12;6.75;;;5.13;;
29568;SDS011;16501;51.462;14.346;2023-07-24T11:29:40;5.85;;;4.80;;
29568;SDS011;16501;51.462;14.346;2023-07-24T11:32:05;6.88;;;5.22;;
29568;SDS011;16501;51.462;14.346;2023-07-24T11:34:31;8.45;;;5.85;;
29568;SDS011;16501;51.462;14.346;2023-07-24T11:36:56;13.32;;;6.28;;
29568;SDS011;16501;51.462;14.346;2023-07-24T11:39:23;6.95;;;5.45;;
29568;SDS011;16501;51.462;14.346;2023-07-24T11:41:49;9.82;;;6.10;;
29568;SDS011;16501;51.462;14.346;2023-07-24T11:44:14;10.02;;;5.43;;
29568;SDS011;16501;51.462;14.346;2023-07-24T11:46:41;8.75;;;6.00;;
29568;SDS011;16501;51.462;14.346;2023-07-24T11:49:08;8.20;;;5.80;;
29568;SDS011;16501;51.462;14.346;2023-07-24T11:51:33;9.50;;;5.95;;
29568;SDS011;16501;51.462;14.346;2023-07-24T11:54:08;10.27;;;7.22;;
29568;SDS011;16501;51.462;14.346;2023-07-24T11:56:36;11.13;;;6.82;;
29568;SDS011;16501;51.462;14.346;2023-07-24T11:59:11;14.55;;;6.50;;
29568;SDS011;16501;51.462;14.346;2023-07-24T12:01:37;9.60;;;6.30;;
29568;SDS011;16501;51.462;14.346;2023-07-24T12:04:03;8.40;;;6.28;;
29568;SDS011;16501;51.462;14.346;2023-07-24T12:06:30;10.98;;;6.43;;
29568;SDS011;16501;51.462;14.346;2023-07-24T12:09:02;10.60;;;6.13;;
29568;SDS011;16501;51.462;14.346;2023-07-24T12:11:29;11.20;;;6.90;;
29568;SDS011;16501;51.462;14.346;2023-07-24T12:13:55;10.85;;;7.05;;
29568;SDS011;16501;51.462;14.346;2023-07-24T12:16:20;9.00;;;6.43;;
29568;SDS011;16501;51.462;14.346;2023-07-24T12:18:46;7.70;;;6.43;;
29568;SDS011;16501;51.462;14.346;2023-07-24T12:21:11;10.43;;;6.13;;
29568;SDS011;16501;51.462;14.346;2023-07-24T12:23:36;10.23;;;6.13;;
29568;SDS011;16501;51.462;14.346;2023-07-24T12:26:01;11.43;;;6.28;;
29568;SDS011;16501;51.462;14.346;2023-07-24T12:28:27;10.18;;;6.85;;
29568;SDS011;16501;51.462;14.346;2023-07-24T12:30:53;12.55;;;7.22;;
29568;SDS011;16501;51.462;14.346;2023-07-24T12:33:18;8.53;;;6.63;;
29568;SDS011;16501;51.462;14.346;2023-07-24T12:35:43;33.80;;;7.00;;
29568;SDS011;16501;51.462;14.346;2023-07-24T12:38:08;10.27;;;7.10;;
29568;SDS011;16501;51.462;14.346;2023-07-24T12:40:34;11.38;;;6.05;;
29568;SDS011;16501;51.462;14.346;2023-07-24T12:42:59;11.43;;;6.20;;
29568;SDS011;16501;51.462;14.346;2023-07-24T12:45:24;10.05;;;6.72;;
29568;SDS011;16501;51.462;14.346;2023-07-24T12:47:49;10.63;;;6.90;;
29568;SDS011;16501;51.462;14.346;2023-07-24T12:50:15;9.10;;;6.68;;
29568;SDS011;16501;51.462;14.346;2023-07-24T12:52:40;11.80;;;6.22;;
29568;SDS011;16501;51.462;14.346;2023-07-24T12:55:05;10.98;;;6.97;;
29568;SDS011;16501;51.462;14.346;2023-07-24T12:57:31;11.88;;;6.38;;
29568;SDS011;16501;51.462;14.346;2023-07-24T12:59:57;9.02;;;6.60;;
29568;SDS011;16501;51.462;14.346;2023-07-24T13:02:22;10.80;;;6.63;;
29568;SDS011;16501;51.462;14.346;2023-07-24T13:04:47;9.90;;;6.65;;
29568;SDS011;16501;51.462;14.346;2023-07-24T13:07:12;13.73;;;5.88;;
29568;SDS011;16501;51.462;14.346;2023-07-24T13:09:38;10.55;;;6.90;;
29568;SDS011;16501;51.462;14.346;2023-07-24T13:12:03;12.43;;;6.43;;
29568;SDS011;16501;51.462;14.346;2023-07-24T13:14:29;8.88;;;7.07;;
29568;SDS011;16501;51.462;14.346;2023-07-24T13:16:54;8.85;;;6.13;;
29568;SDS011;16501;51.462;14.346;2023-07-24T13:19:19;8.48;;;6.15;;
29568;SDS011;16501;51.462;14.346;2023-07-24T13:21:45;12.33;;;6.93;;
29568;SDS011;16501;51.462;14.346;2023-07-24T13:24:12;9.02;;;6.70;;
29568;SDS011;16501;51.462;14.346;2023-07-24T13:26:37;8.85;;;6.07;;
29568;SDS011;16501;51.462;14.346;2023-07-24T13:29:03;12.98;;;7.05;;
29568;SDS011;16501;51.462;14.346;2023-07-24T13:31:28;7.65;;;6.80;;
29568;SDS011;16501;51.462;14.346;2023-07-24T13:33:55;13.23;;;7.28;;
29568;SDS011;16501;51.462;14.346;2023-07-24T13:36:20;8.98;;;6.28;;
29568;SDS011;16501;51.462;14.346;2023-07-24T13:38:46;9.27;;;6.28;;
29568;SDS011;16501;51.462;14.346;2023-07-24T13:41:11;9.93;;;6.30;;
29568;SDS011;16501;51.462;14.346;2023-07-24T13:43:36;10.07;;;7.13;;
29568;SDS011;16501;51.462;14.346;2023-07-24T13:46:01;7.85;;;6.10;;
29568;SDS011;16501;51.462;14.346;2023-07-24T13:48:30;10.00;;;7.75;;
29568;SDS011;16501;51.462;14.346;2023-07-24T13:50:55;10.80;;;7.45;;
29568;SDS011;16501;51.462;14.346;2023-07-24T13:53:21;17.35;;;7.57;;
29568;SDS011;16501;51.462;14.346;2023-07-24T13:55:47;10.43;;;6.97;;
29568;SDS011;16501;51.462;14.346;2023-07-24T13:58:12;10.65;;;6.68;;
29568;SDS011;16501;51.462;14.346;2023-07-24T14:00:37;13.63;;;7.20;;
29568;SDS011;16501;51.462;14.346;2023-07-24T14:03:03;13.02;;;8.15;;
29568;SDS011;16501;51.462;14.346;2023-07-24T14:05:28;11.73;;;7.93;;
29568;SDS011;16501;51.462;14.346;2023-07-24T14:07:53;12.95;;;8.25;;
29568;SDS011;16501;51.462;14.346;2023-07-24T14:10:19;14.05;;;7.82;;
29568;SDS011;16501;51.462;14.346;2023-07-24T14:12:44;9.77;;;6.43;;
29568;SDS011;16501;51.462;14.346;2023-07-24T14:15:09;12.07;;;5.90;;
29568;SDS011;16501;51.462;14.346;2023-07-24T14:17:35;7.95;;;4.88;;
29568;SDS011;16501;51.462;14.346;2023-07-24T14:20:00;7.33;;;5.00;;
29568;SDS011;16501;51.462;14.346;2023-07-24T14:22:27;9.77;;;4.85;;
29568;SDS011;16501;51.462;14.346;2023-07-24T14:24:52;6.45;;;5.05;;
29568;SDS011;16501;51.462;14.346;2023-07-24T14:27:20;9.00;;;4.20;;
29568;SDS011;16501;51.462;14.346;2023-07-24T14:29:45;9.17;;;4.73;;
29568;SDS011;16501;51.462;14.346;2023-07-24T14:32:11;8.73;;;6.00;;